sensor_id;sensor_type;location;lat;lon;timestamp;P1;durP1;ratioP1;P2;durP2;ratioP2
23260;SDS011;11799;47.740;-3.390;2024-01-15T00:01:43;28.15;;;15.48;;
23260;SDS011;11799;47.740;-3.390;2024-01-15T00:04:09;27.17;;;14.88;;
23260;SDS011;11799;47.740;-3.390;2024-01-15T00:06:35;25.38;;;14.05;;
23260;SDS011;11799;47.740;-3.390;2024-01-15T00:09:00;25.40;;;13.57;;
23260;SDS011;11799;47.740;-3.390;2024-01-15T00:11:26;26.55;;;14.75;;
23260;SDS011;11799;47.740;-3.390;2024-01-15T00:13:52;30.40;;;14.82;;
23260;SDS011;11799;47.740;-3.390;2024-01-15T00:16:17;28.08;;;14.00;;
23260;SDS011;11799;47.740;-3.390;2024-01-15T00:18:43;27.17;;;14.50;;
23260;SDS011;11799;47.740;-3.390;2024-01-15T00:21:08;25.42;;;13.90;;
23260;SDS011;11799;47.740;-3.390;2024-01-15T00:23:34;24.65;;;13.23;;
23260;SDS011;11799;47.740;-3.390;2024-01-15T00:25:59;26.23;;;14.10;;
23260;SDS011;11799;47.740;-3.390;2024-01-15T00:28:25;21.42;;;13.77;;
23260;SDS011;11799;47.740;-3.390;2024-01-15T00:30:51;25.25;;;13.25;;
23260;SDS011;11799;47.740;-3.390;2024-01-15T00:33:16;22.83;;;13.25;;
23260;SDS011;11799;47.740;-3.390;2024-01-15T00:35:42;25.92;;;12.82;;
23260;SDS011;11799;47.740;-3.390;2024-01-15T00:38:08;20.17;;;12.35;;
23260;SDS011;11799;47.740;-3.390;2024-01-15T00:40:33;21.63;;;13.07;;
23260;SDS011;11799;47.740;-3.390;2024-01-15T00:42:58;25.90;;;13.82;;
23260;SDS011;11799;47.740;-3.390;2024-01-15T00:45:24;22.80;;;13.35;;
23260;SDS011;11799;47.740;-3.390;2024-01-15T00:47:50;24.67;;;14.40;;
23260;SDS011;11799;47.740;-3.390;2024-01-15T00:50:15;25.58;;;13.77;;
23260;SDS011;11799;47.740;-3.390;2024-01-15T00:52:41;23.25;;;12.82;;
23260;SDS011;11799;47.740;-3.390;2024-01-15T00:55:07;25.55;;;12.95;;
23260;SDS011;11799;47.740;-3.390;2024-01-15T00:57:32;24.58;;;13.52;;
23260;SDS011;11799;47.740;-3.390;2024-01-15T00:59:58;26.67;;;13.88;;
23260;SDS011;11799;47.740;-3.390;2024-01-15T01:02:23;26.20;;;12.27;;
23260;SDS011;11799;47.740;-3.390;2024-01-15T01:04:49;26.60;;;14.02;;
23260;SDS011;11799;47.740;-3.390;2024-01-15T01:07:15;25.55;;;13.27;;
23260;SDS011;11799;47.740;-3.390;2024-01-15T01:09:40;21.73;;;12.15;;
23260;SDS011;11799;47.740;-3.390;2024-01-15T01:12:06;20.83;;;11.93;;
23260;SDS011;11799;47.740;-3.390;2024-01-15T01:14:31;21.80;;;12.50;;
23260;SDS011;11799;47.740;-3.390;2024-01-15T01:16:57;21.85;;;11.38;;
23260;SDS011;11799;47.740;-3.390;2024-01-15T01:19:23;24.08;;;12.32;;
23260;SDS011;11799;47.740;-3.390;2024-01-15T01:21:50;19.45;;;11.05;;
23260;SDS011;11799;47.740;-3.390;2024-01-15T01:24:16;20.85;;;12.00;;
23260;SDS011;11799;47.740;-3.390;2024-01-15T01:26:42;22.55;;;12.35;;
23260;SDS011;11799;47.740;-3.390;2024-01-15T01:29:07;20.50;;;12.18;;
23260;SDS011;11799;47.740;-3.390;2024-01-15T01:31:33;19.67;;;11.85;;
23260;SDS011;11799;47.740;-3.390;2024-01-15T01:33:59;19.48;;;11.35;;
23260;SDS011;11799;47.740;-3.390;2024-01-15T01:36:24;21.83;;;11.82;;
23260;SDS011;11799;47.740;-3.390;2024-01-15T01:38:50;19.15;;;10.88;;
23260;SDS011;11799;47.740;-3.390;2024-01-15T01:41:15;19.23;;;11.13;;
23260;SDS011;11799;47.740;-3.390;2024-01-15T01:43:41;22.13;;;11.90;;
23260;SDS011;11799;47.740;-3.390;2024-01-15T01:46:06;19.42;;;12.00;;
23260;SDS011;11799;47.740;-3.390;2024-01-15T01:48:32;20.45;;;11.13;;
23260;SDS011;11799;47.740;-3.390;2024-01-15T01:50:59;18.27;;;10.65;;
23260;SDS011;11799;47.740;-3.390;2024-01-15T01:53:27;17.95;;;10.45;;
23260;SDS011;11799;47.740;-3.390;2024-01-15T01:55:54;17.35;;;10.00;;
23260;SDS011;11799;47.740;-3.390;2024-01-15T01:58:22;18.05;;;10.05;;
23260;SDS011;11799;47.740;-3.390;2024-01-15T02:00:48;15.20;;;10.13;;
23260;SDS011;11799;47.740;-3.390;2024-01-15T02:03:14;17.80;;;10.50;;
23260;SDS011;11799;47.740;-3.390;2024-01-15T02:05:40;15.35;;;9.68;;
23260;SDS011;11799;47.740;-3.390;2024-01-15T02:08:08;17.98;;;10.57;;
23260;SDS011;11799;47.740;-3.390;2024-01-15T02:10:33;17.35;;;10.27;;
23260;SDS011;11799;47.740;-3.390;2024-01-15T02:12:59;15.40;;;8.68;;
23260;SDS011;11799;47.740;-3.390;2024-01-15T02:15:25;16.42;;;9.30;;
23260;SDS011;11799;47.740;-3.390;2024-01-15T02:20:22;14.45;;;8.88;;
23260;SDS011;11799;47.740;-3.390;2024-01-15T02:22:47;14.98;;;9.27;;
23260;SDS011;11799;47.740;-3.390;2024-01-15T02:25:13;15.25;;;9.40;;
23260;SDS011;11799;47.740;-3.390;2024-01-15T02:27:38;17.08;;;10.07;;
23260;SDS011;11799;47.740;-3.390;2024-01-15T02:30:04;17.45;;;9.63;;
23260;SDS011;11799;47.740;-3.390;2024-01-15T02:32:31;15.85;;;10.32;;
23260;SDS011;11799;47.740;-3.390;2024-01-15T02:34:56;17.77;;;9.85;;
23260;SDS011;11799;47.740;-3.390;2024-01-15T02:37:22;18.50;;;10.18;;
23260;SDS011;11799;47.740;-3.390;2024-01-15T02:39:47;15.55;;;9.85;;
23260;SDS011;11799;47.740;-3.390;2024-01-15T02:42:13;20.58;;;9.88;;
23260;SDS011;11799;47.740;-3.390;2024-01-15T02:44:38;17.33;;;10.35;;
23260;SDS011;11799;47.740;-3.390;2024-01-15T02:47:04;17.05;;;10.25;;
23260;SDS011;11799;47.740;-3.390;2024-01-15T02:49:30;18.23;;;10.05;;
23260;SDS011;11799;47.740;-3.390;2024-01-15T02:51:57;16.40;;;9.55;;
23260;SDS011;11799;47.740;-3.390;2024-01-15T02:54:23;18.48;;;9.63;;
23260;SDS011;11799;47.740;-3.390;2024-01-15T02:56:48;16.42;;;10.25;;
23260;SDS011;11799;47.740;-3.390;2024-01-15T02:59:14;16.13;;;9.50;;
23260;SDS011;11799;47.740;-3.390;2024-01-15T03:01:39;15.25;;;9.38;;
23260;SDS011;11799;47.740;-3.390;2024-01-15T03:04:05;13.98;;;8.80;;
23260;SDS011;11799;47.740;-3.390;2024-01-15T03:06:30;16.05;;;9.30;;
23260;SDS011;11799;47.740;-3.390;2024-01-15T03:08:56;14.10;;;9.10;;
23260;SDS011;11799;47.740;-3.390;2024-01-15T03:11:21;15.55;;;9.55;;
23260;SDS011;11799;47.740;-3.390;2024-01-15T03:13:47;12.45;;;8.30;;
23260;SDS011;11799;47.740;-3.390;2024-01-15T03:16:12;15.07;;;8.93;;
23260;SDS011;11799;47.740;-3.390;2024-01-15T03:18:38;18.90;;;9.70;;
23260;SDS011;11799;47.740;-3.390;2024-01-15T03:21:04;16.83;;;10.18;;
23260;SDS011;11799;47.740;-3.390;2024-01-15T03:23:30;18.40;;;9.65;;
23260;SDS011;11799;47.740;-3.390;2024-01-15T03:25:55;17.77;;;10.80;;
23260;SDS011;11799;47.740;-3.390;2024-01-15T03:28:21;16.65;;;10.27;;
23260;SDS011;11799;47.740;-3.390;2024-01-15T03:30:46;18.48;;;10.40;;
23260;SDS011;11799;47.740;-3.390;2024-01-15T03:33:12;17.00;;;10.60;;
23260;SDS011;11799;47.740;-3.390;2024-01-15T03:35:37;20.05;;;10.70;;
23260;SDS011;11799;47.740;-3.390;2024-01-15T03:38:03;20.88;;;11.23;;
23260;SDS011;11799;47.740;-3.390;2024-01-15T03:40:29;20.33;;;11.68;;
23260;SDS011;11799;47.740;-3.390;2024-01-15T03:42:54;21.67;;;12.60;;
23260;SDS011;11799;47.740;-3.390;2024-01-15T03:45:20;23.08;;;11.90;;
23260;SDS011;11799;47.740;-3.390;2024-01-15T03:47:45;21.27;;;10.98;;
23260;SDS011;11799;47.740;-3.390;2024-01-15T03:50:10;20.80;;;11.20;;
23260;SDS011;11799;47.740;-3.390;2024-01-15T03:52:37;18.98;;;10.95;;
23260;SDS011;11799;47.740;-3.390;2024-01-15T03:55:03;20.38;;;11.70;;
23260;SDS011;11799;47.740;-3.390;2024-01-15T03:57:30;18.95;;;10.93;;
23260;SDS011;11799;47.740;-3.390;2024-01-15T03:59:55;18.92;;;11.35;;
23260;SDS011;11799;47.740;-3.390;2024-01-15T04:02:21;22.98;;;11.85;;
23260;SDS011;11799;47.740;-3.390;2024-01-15T04:04:46;23.50;;;11.68;;
23260;SDS011;11799;47.740;-3.390;2024-01-15T04:07:12;19.63;;;11.65;;
23260;SDS011;11799;47.740;-3.390;2024-01-15T04:09:37;20.50;;;11.93;;
23260;SDS011;11799;47.740;-3.390;2024-01-15T04:12:03;19.00;;;10.57;;
23260;SDS011;11799;47.740;-3.390;2024-01-15T04:14:29;19.25;;;11.38;;
23260;SDS011;11799;47.740;-3.390;2024-01-15T04:16:54;21.67;;;12.13;;
23260;SDS011;11799;47.740;-3.390;2024-01-15T04:19:19;19.85;;;10.93;;
23260;SDS011;11799;47.740;-3.390;2024-01-15T04:21:45;17.42;;;10.68;;
23260;SDS011;11799;47.740;-3.390;2024-01-15T04:24:10;18.15;;;10.60;;
23260;SDS011;11799;47.740;-3.390;2024-01-15T04:26:36;17.02;;;10.77;;
23260;SDS011;11799;47.740;-3.390;2024-01-15T04:29:01;17.55;;;10.27;;
23260;SDS011;11799;47.740;-3.390;2024-01-15T04:31:27;21.75;;;12.07;;
23260;SDS011;11799;47.740;-3.390;2024-01-15T04:33:53;19.33;;;11.48;;
23260;SDS011;11799;47.740;-3.390;2024-01-15T04:36:18;20.23;;;11.77;;
23260;SDS011;11799;47.740;-3.390;2024-01-15T04:38:44;21.05;;;11.30;;
23260;SDS011;11799;47.740;-3.390;2024-01-15T04:41:11;18.00;;;10.38;;
23260;SDS011;11799;47.740;-3.390;2024-01-15T04:43:41;16.95;;;11.05;;
23260;SDS011;11799;47.740;-3.390;2024-01-15T04:46:06;20.13;;;10.68;;
23260;SDS011;11799;47.740;-3.390;2024-01-15T04:48:32;19.55;;;10.52;;
23260;SDS011;11799;47.740;-3.390;2024-01-15T04:50:58;18.17;;;10.27;;
23260;SDS011;11799;47.740;-3.390;2024-01-15T04:53:24;16.75;;;10.23;;
23260;SDS011;11799;47.740;-3.390;2024-01-15T04:55:49;20.00;;;10.63;;
23260;SDS011;11799;47.740;-3.390;2024-01-15T04:58:15;19.33;;;10.40;;
23260;SDS011;11799;47.740;-3.390;2024-01-15T05:00:40;19.75;;;9.93;;
23260;SDS011;11799;47.740;-3.390;2024-01-15T05:03:06;20.15;;;10.45;;
23260;SDS011;11799;47.740;-3.390;2024-01-15T05:05:31;18.65;;;10.10;;
23260;SDS011;11799;47.740;-3.390;2024-01-15T05:07:57;18.67;;;10.75;;
23260;SDS011;11799;47.740;-3.390;2024-01-15T05:10:22;20.60;;;10.15;;
23260;SDS011;11799;47.740;-3.390;2024-01-15T05:12:47;20.98;;;10.18;;
23260;SDS011;11799;47.740;-3.390;2024-01-15T05:15:13;19.45;;;10.75;;
23260;SDS011;11799;47.740;-3.390;2024-01-15T05:17:39;17.50;;;9.65;;
23260;SDS011;11799;47.740;-3.390;2024-01-15T05:20:04;16.48;;;9.43;;
23260;SDS011;11799;47.740;-3.390;2024-01-15T05:22:30;16.25;;;10.13;;
23260;SDS011;11799;47.740;-3.390;2024-01-15T05:24:56;16.25;;;10.07;;
23260;SDS011;11799;47.740;-3.390;2024-01-15T05:27:21;18.52;;;9.75;;
23260;SDS011;11799;47.740;-3.390;2024-01-15T05:29:47;17.38;;;9.98;;
23260;SDS011;11799;47.740;-3.390;2024-01-15T05:32:12;16.48;;;9.98;;
23260;SDS011;11799;47.740;-3.390;2024-01-15T05:34:38;14.70;;;9.45;;
23260;SDS011;11799;47.740;-3.390;2024-01-15T05:37:03;17.85;;;9.93;;
23260;SDS011;11799;47.740;-3.390;2024-01-15T05:39:29;16.95;;;10.25;;
23260;SDS011;11799;47.740;-3.390;2024-01-15T05:41:54;18.30;;;9.95;;
23260;SDS011;11799;47.740;-3.390;2024-01-15T05:44:20;18.15;;;10.43;;
23260;SDS011;11799;47.740;-3.390;2024-01-15T05:46:46;18.67;;;10.32;;
23260;SDS011;11799;47.740;-3.390;2024-01-15T05:49:11;17.95;;;9.75;;
23260;SDS011;11799;47.740;-3.390;2024-01-15T05:51:37;15.73;;;9.63;;
23260;SDS011;11799;47.740;-3.390;2024-01-15T05:54:02;19.05;;;10.05;;
23260;SDS011;11799;47.740;-3.390;2024-01-15T05:56:28;14.50;;;8.93;;
23260;SDS011;11799;47.740;-3.390;2024-01-15T05:58:53;18.55;;;10.45;;
23260;SDS011;11799;47.740;-3.390;2024-01-15T06:01:19;17.08;;;10.00;;
23260;SDS011;11799;47.740;-3.390;2024-01-15T06:03:45;17.48;;;10.25;;
23260;SDS011;11799;47.740;-3.390;2024-01-15T06:06:10;17.98;;;9.73;;
23260;SDS011;11799;47.740;-3.390;2024-01-15T06:08:36;18.05;;;9.68;;
23260;SDS011;11799;47.740;-3.390;2024-01-15T06:11:02;18.63;;;10.10;;
23260;SDS011;11799;47.740;-3.390;2024-01-15T06:13:28;21.77;;;10.68;;
23260;SDS011;11799;47.740;-3.390;2024-01-15T06:15:53;19.40;;;10.30;;
23260;SDS011;11799;47.740;-3.390;2024-01-15T06:18:19;18.92;;;10.45;;
23260;SDS011;11799;47.740;-3.390;2024-01-15T06:20:44;19.52;;;10.52;;
23260;SDS011;11799;47.740;-3.390;2024-01-15T06:23:10;17.83;;;9.57;;
23260;SDS011;11799;47.740;-3.390;2024-01-15T06:25:35;18.48;;;10.48;;
23260;SDS011;11799;47.740;-3.390;2024-01-15T06:28:01;18.13;;;10.40;;
23260;SDS011;11799;47.740;-3.390;2024-01-15T06:30:26;18.30;;;10.60;;
23260;SDS011;11799;47.740;-3.390;2024-01-15T06:32:52;17.45;;;10.38;;
23260;SDS011;11799;47.740;-3.390;2024-01-15T06:35:17;18.60;;;10.43;;
23260;SDS011;11799;47.740;-3.390;2024-01-15T06:37:43;19.77;;;11.05;;
23260;SDS011;11799;47.740;-3.390;2024-01-15T06:40:09;18.70;;;10.80;;
23260;SDS011;11799;47.740;-3.390;2024-01-15T06:42:35;21.15;;;10.57;;
23260;SDS011;11799;47.740;-3.390;2024-01-15T06:45:00;18.45;;;11.50;;
23260;SDS011;11799;47.740;-3.390;2024-01-15T06:47:26;22.88;;;11.73;;
23260;SDS011;11799;47.740;-3.390;2024-01-15T06:49:51;23.42;;;11.70;;
23260;SDS011;11799;47.740;-3.390;2024-01-15T06:52:17;22.27;;;12.02;;
23260;SDS011;11799;47.740;-3.390;2024-01-15T06:54:43;21.73;;;11.38;;
23260;SDS011;11799;47.740;-3.390;2024-01-15T06:57:08;22.13;;;12.50;;
23260;SDS011;11799;47.740;-3.390;2024-01-15T06:59:34;19.70;;;11.82;;
23260;SDS011;11799;47.740;-3.390;2024-01-15T07:02:00;23.02;;;12.48;;
23260;SDS011;11799;47.740;-3.390;2024-01-15T07:04:26;22.67;;;12.65;;
23260;SDS011;11799;47.740;-3.390;2024-01-15T07:06:51;20.77;;;12.02;;
23260;SDS011;11799;47.740;-3.390;2024-01-15T07:09:17;23.50;;;12.68;;
23260;SDS011;11799;47.740;-3.390;2024-01-15T07:11:46;18.27;;;11.00;;
23260;SDS011;11799;47.740;-3.390;2024-01-15T07:14:12;23.05;;;13.25;;
23260;SDS011;11799;47.740;-3.390;2024-01-15T07:16:38;23.45;;;13.05;;
23260;SDS011;11799;47.740;-3.390;2024-01-15T07:19:03;27.27;;;14.05;;
23260;SDS011;11799;47.740;-3.390;2024-01-15T07:21:29;26.65;;;13.60;;
23260;SDS011;11799;47.740;-3.390;2024-01-15T07:23:55;24.38;;;12.77;;
23260;SDS011;11799;47.740;-3.390;2024-01-15T07:26:20;23.08;;;13.13;;
23260;SDS011;11799;47.740;-3.390;2024-01-15T07:28:46;21.08;;;12.85;;
23260;SDS011;11799;47.740;-3.390;2024-01-15T07:31:12;25.23;;;12.88;;
23260;SDS011;11799;47.740;-3.390;2024-01-15T07:33:37;22.90;;;12.10;;
23260;SDS011;11799;47.740;-3.390;2024-01-15T07:36:03;21.38;;;11.77;;
23260;SDS011;11799;47.740;-3.390;2024-01-15T07:38:29;24.60;;;12.77;;
23260;SDS011;11799;47.740;-3.390;2024-01-15T07:40:54;24.35;;;12.88;;
23260;SDS011;11799;47.740;-3.390;2024-01-15T07:43:20;22.75;;;12.38;;
23260;SDS011;11799;47.740;-3.390;2024-01-15T07:45:46;21.92;;;12.10;;
23260;SDS011;11799;47.740;-3.390;2024-01-15T07:48:11;24.50;;;11.95;;
23260;SDS011;11799;47.740;-3.390;2024-01-15T07:50:37;22.67;;;12.10;;
23260;SDS011;11799;47.740;-3.390;2024-01-15T07:53:02;23.50;;;11.82;;
23260;SDS011;11799;47.740;-3.390;2024-01-15T07:55:29;20.77;;;11.32;;
23260;SDS011;11799;47.740;-3.390;2024-01-15T07:57:54;24.58;;;13.73;;
23260;SDS011;11799;47.740;-3.390;2024-01-15T08:00:23;23.40;;;13.35;;
23260;SDS011;11799;47.740;-3.390;2024-01-15T08:02:49;27.23;;;14.40;;
23260;SDS011;11799;47.740;-3.390;2024-01-15T08:05:16;25.48;;;14.25;;
23260;SDS011;11799;47.740;-3.390;2024-01-15T08:07:42;27.00;;;13.73;;
23260;SDS011;11799;47.740;-3.390;2024-01-15T08:10:07;26.30;;;12.68;;
23260;SDS011;11799;47.740;-3.390;2024-01-15T08:12:33;26.92;;;13.13;;
23260;SDS011;11799;47.740;-3.390;2024-01-15T08:14:58;27.25;;;14.57;;
23260;SDS011;11799;47.740;-3.390;2024-01-15T08:17:24;24.27;;;13.65;;
23260;SDS011;11799;47.740;-3.390;2024-01-15T08:19:53;24.42;;;12.07;;
23260;SDS011;11799;47.740;-3.390;2024-01-15T08:22:20;25.20;;;13.18;;
23260;SDS011;11799;47.740;-3.390;2024-01-15T08:24:45;23.58;;;12.82;;
23260;SDS011;11799;47.740;-3.390;2024-01-15T08:27:11;23.35;;;12.93;;
23260;SDS011;11799;47.740;-3.390;2024-01-15T08:29:36;28.55;;;15.98;;
23260;SDS011;11799;47.740;-3.390;2024-01-15T08:32:02;26.60;;;14.63;;
23260;SDS011;11799;47.740;-3.390;2024-01-15T08:34:27;25.55;;;13.45;;
23260;SDS011;11799;47.740;-3.390;2024-01-15T08:36:53;25.05;;;13.00;;
23260;SDS011;11799;47.740;-3.390;2024-01-15T08:39:19;25.17;;;13.00;;
23260;SDS011;11799;47.740;-3.390;2024-01-15T08:41:44;22.88;;;11.70;;
23260;SDS011;11799;47.740;-3.390;2024-01-15T08:44:11;21.58;;;11.13;;
23260;SDS011;11799;47.740;-3.390;2024-01-15T08:46:37;24.23;;;11.60;;
23260;SDS011;11799;47.740;-3.390;2024-01-15T08:49:03;21.65;;;11.77;;
23260;SDS011;11799;47.740;-3.390;2024-01-15T08:51:29;22.45;;;12.05;;
23260;SDS011;11799;47.740;-3.390;2024-01-15T08:53:55;23.80;;;12.57;;
23260;SDS011;11799;47.740;-3.390;2024-01-15T08:56:22;22.48;;;12.32;;
23260;SDS011;11799;47.740;-3.390;2024-01-15T08:58:47;20.70;;;11.63;;
23260;SDS011;11799;47.740;-3.390;2024-01-15T09:01:13;22.92;;;12.70;;
23260;SDS011;11799;47.740;-3.390;2024-01-15T09:03:39;24.27;;;13.57;;
23260;SDS011;11799;47.740;-3.390;2024-01-15T09:06:06;26.83;;;13.60;;
23260;SDS011;11799;47.740;-3.390;2024-01-15T09:08:32;25.30;;;13.57;;
23260;SDS011;11799;47.740;-3.390;2024-01-15T09:10:58;30.88;;;15.30;;
23260;SDS011;11799;47.740;-3.390;2024-01-15T09:13:23;27.05;;;14.25;;
23260;SDS011;11799;47.740;-3.390;2024-01-15T09:15:49;24.65;;;13.48;;
23260;SDS011;11799;47.740;-3.390;2024-01-15T09:18:14;23.50;;;12.13;;
23260;SDS011;11799;47.740;-3.390;2024-01-15T09:20:40;24.05;;;12.48;;
23260;SDS011;11799;47.740;-3.390;2024-01-15T09:23:05;23.92;;;13.27;;
23260;SDS011;11799;47.740;-3.390;2024-01-15T09:25:31;23.27;;;12.30;;
23260;SDS011;11799;47.740;-3.390;2024-01-15T09:27:57;28.80;;;13.82;;
23260;SDS011;11799;47.740;-3.390;2024-01-15T09:30:23;25.20;;;13.13;;
23260;SDS011;11799;47.740;-3.390;2024-01-15T09:32:48;24.48;;;12.57;;
23260;SDS011;11799;47.740;-3.390;2024-01-15T09:35:14;24.42;;;12.60;;
23260;SDS011;11799;47.740;-3.390;2024-01-15T09:37:39;31.27;;;13.75;;
23260;SDS011;11799;47.740;-3.390;2024-01-15T09:40:08;41.40;;;20.75;;
23260;SDS011;11799;47.740;-3.390;2024-01-15T09:42:38;28.48;;;14.15;;
23260;SDS011;11799;47.740;-3.390;2024-01-15T09:45:04;26.33;;;14.30;;
23260;SDS011;11799;47.740;-3.390;2024-01-15T09:47:31;24.60;;;13.00;;
23260;SDS011;11799;47.740;-3.390;2024-01-15T09:49:56;27.55;;;13.35;;
23260;SDS011;11799;47.740;-3.390;2024-01-15T09:52:23;29.50;;;14.43;;
23260;SDS011;11799;47.740;-3.390;2024-01-15T09:54:50;28.20;;;14.60;;
23260;SDS011;11799;47.740;-3.390;2024-01-15T09:57:17;31.58;;;14.10;;
23260;SDS011;11799;47.740;-3.390;2024-01-15T09:59:43;28.23;;;13.80;;
23260;SDS011;11799;47.740;-3.390;2024-01-15T10:02:10;26.75;;;13.02;;
23260;SDS011;11799;47.740;-3.390;2024-01-15T10:04:39;26.30;;;14.02;;
23260;SDS011;11799;47.740;-3.390;2024-01-15T10:07:05;21.92;;;11.73;;
23260;SDS011;11799;47.740;-3.390;2024-01-15T10:09:33;23.77;;;12.68;;
23260;SDS011;11799;47.740;-3.390;2024-01-15T10:11:58;25.60;;;12.48;;
23260;SDS011;11799;47.740;-3.390;2024-01-15T10:14:24;22.45;;;12.63;;
23260;SDS011;11799;47.740;-3.390;2024-01-15T10:16:50;22.30;;;10.93;;
23260;SDS011;11799;47.740;-3.390;2024-01-15T10:19:15;26.17;;;12.20;;
23260;SDS011;11799;47.740;-3.390;2024-01-15T10:21:41;21.13;;;11.43;;
23260;SDS011;11799;47.740;-3.390;2024-01-15T10:24:06;18.45;;;10.35;;
23260;SDS011;11799;47.740;-3.390;2024-01-15T10:26:32;20.80;;;10.35;;
23260;SDS011;11799;47.740;-3.390;2024-01-15T10:28:58;21.95;;;10.60;;
23260;SDS011;11799;47.740;-3.390;2024-01-15T10:31:25;22.23;;;11.45;;
23260;SDS011;11799;47.740;-3.390;2024-01-15T10:33:51;25.15;;;13.50;;
23260;SDS011;11799;47.740;-3.390;2024-01-15T10:36:17;21.83;;;10.57;;
23260;SDS011;11799;47.740;-3.390;2024-01-15T10:38:43;20.27;;;10.73;;
23260;SDS011;11799;47.740;-3.390;2024-01-15T10:41:09;16.50;;;10.63;;
23260;SDS011;11799;47.740;-3.390;2024-01-15T10:43:35;16.05;;;9.25;;
23260;SDS011;11799;47.740;-3.390;2024-01-15T10:46:01;17.65;;;10.35;;
23260;SDS011;11799;47.740;-3.390;2024-01-15T10:48:27;16.48;;;9.00;;
23260;SDS011;11799;47.740;-3.390;2024-01-15T10:50:55;14.13;;;8.50;;
23260;SDS011;11799;47.740;-3.390;2024-01-15T10:53:21;15.80;;;8.07;;
23260;SDS011;11799;47.740;-3.390;2024-01-15T10:55:50;12.63;;;6.90;;
23260;SDS011;11799;47.740;-3.390;2024-01-15T10:58:18;14.57;;;7.53;;
23260;SDS011;11799;47.740;-3.390;2024-01-15T11:00:46;12.52;;;6.15;;
23260;SDS011;11799;47.740;-3.390;2024-01-15T11:03:11;12.15;;;5.15;;
23260;SDS011;11799;47.740;-3.390;2024-01-15T11:05:38;9.32;;;4.70;;
23260;SDS011;11799;47.740;-3.390;2024-01-15T11:08:07;4.32;;;3.33;;
23260;SDS011;11799;47.740;-3.390;2024-01-15T11:10:40;6.28;;;3.40;;
23260;SDS011;11799;47.740;-3.390;2024-01-15T11:13:10;5.03;;;3.47;;
23260;SDS011;11799;47.740;-3.390;2024-01-15T11:18:42;6.57;;;3.88;;
23260;SDS011;11799;47.740;-3.390;2024-01-15T11:23:42;7.47;;;4.40;;
23260;SDS011;11799;47.740;-3.390;2024-01-15T11:34:20;5.10;;;3.97;;
23260;SDS011;11799;47.740;-3.390;2024-01-15T11:37:06;5.03;;;3.10;;
23260;SDS011;11799;47.740;-3.390;2024-01-15T11:41:58;7.80;;;2.75;;
23260;SDS011;11799;47.740;-3.390;2024-01-15T11:44:25;5.43;;;2.10;;
23260;SDS011;11799;47.740;-3.390;2024-01-15T11:46:58;2.42;;;1.48;;
23260;SDS011;11799;47.740;-3.390;2024-01-15T11:52:10;3.40;;;1.30;;
23260;SDS011;11799;47.740;-3.390;2024-01-15T11:54:37;2.78;;;1.40;;
23260;SDS011;11799;47.740;-3.390;2024-01-15T11:57:09;3.38;;;1.67;;
23260;SDS011;11799;47.740;-3.390;2024-01-15T11:59:41;4.28;;;1.50;;
23260;SDS011;11799;47.740;-3.390;2024-01-15T12:02:08;2.72;;;1.55;;
23260;SDS011;11799;47.740;-3.390;2024-01-15T12:04:36;3.22;;;1.52;;
23260;SDS011;11799;47.740;-3.390;2024-01-15T12:07:02;4.15;;;1.50;;
23260;SDS011;11799;47.740;-3.390;2024-01-15T12:09:27;3.92;;;1.50;;
23260;SDS011;11799;47.740;-3.390;2024-01-15T12:11:57;3.90;;;1.60;;
23260;SDS011;11799;47.740;-3.390;2024-01-15T12:14:37;1.80;;;1.13;;
23260;SDS011;11799;47.740;-3.390;2024-01-15T12:17:03;3.08;;;1.52;;
23260;SDS011;11799;47.740;-3.390;2024-01-15T12:19:29;3.17;;;1.30;;
23260;SDS011;11799;47.740;-3.390;2024-01-15T12:21:54;2.13;;;1.33;;
23260;SDS011;11799;47.740;-3.390;2024-01-15T12:24:20;1.92;;;1.23;;
23260;SDS011;11799;47.740;-3.390;2024-01-15T12:26:45;2.75;;;1.30;;
23260;SDS011;11799;47.740;-3.390;2024-01-15T12:29:11;4.78;;;1.60;;
23260;SDS011;11799;47.740;-3.390;2024-01-15T12:31:37;1.25;;;1.17;;
23260;SDS011;11799;47.740;-3.390;2024-01-15T12:34:02;3.63;;;1.50;;
23260;SDS011;11799;47.740;-3.390;2024-01-15T12:36:31;2.38;;;1.30;;
23260;SDS011;11799;47.740;-3.390;2024-01-15T12:39:00;4.10;;;1.60;;
23260;SDS011;11799;47.740;-3.390;2024-01-15T12:41:25;1.60;;;1.50;;
23260;SDS011;11799;47.740;-3.390;2024-01-15T12:43:51;3.22;;;1.30;;
23260;SDS011;11799;47.740;-3.390;2024-01-15T12:46:17;3.17;;;1.77;;
23260;SDS011;11799;47.740;-3.390;2024-01-15T12:48:44;1.95;;;1.50;;
23260;SDS011;11799;47.740;-3.390;2024-01-15T12:51:10;2.47;;;1.70;;
23260;SDS011;11799;47.740;-3.390;2024-01-15T12:53:35;2.33;;;1.67;;
23260;SDS011;11799;47.740;-3.390;2024-01-15T12:56:01;4.40;;;1.58;;
23260;SDS011;11799;47.740;-3.390;2024-01-15T12:58:26;5.22;;;1.95;;
23260;SDS011;11799;47.740;-3.390;2024-01-15T13:00:52;2.80;;;2.30;;
23260;SDS011;11799;47.740;-3.390;2024-01-15T13:03:17;3.65;;;1.85;;
23260;SDS011;11799;47.740;-3.390;2024-01-15T13:05:43;4.18;;;2.10;;
23260;SDS011;11799;47.740;-3.390;2024-01-15T13:08:10;3.15;;;1.58;;
23260;SDS011;11799;47.740;-3.390;2024-01-15T13:10:35;2.08;;;1.50;;
23260;SDS011;11799;47.740;-3.390;2024-01-15T13:13:01;2.70;;;1.70;;
23260;SDS011;11799;47.740;-3.390;2024-01-15T13:15:27;5.93;;;1.77;;
23260;SDS011;11799;47.740;-3.390;2024-01-15T13:17:52;5.43;;;2.25;;
23260;SDS011;11799;47.740;-3.390;2024-01-15T13:20:18;4.82;;;1.60;;
23260;SDS011;11799;47.740;-3.390;2024-01-15T13:22:43;3.83;;;1.52;;
23260;SDS011;11799;47.740;-3.390;2024-01-15T13:25:09;3.80;;;1.70;;
23260;SDS011;11799;47.740;-3.390;2024-01-15T13:27:36;5.90;;;1.80;;
23260;SDS011;11799;47.740;-3.390;2024-01-15T13:30:02;5.35;;;1.88;;
23260;SDS011;11799;47.740;-3.390;2024-01-15T13:32:28;5.20;;;1.88;;
23260;SDS011;11799;47.740;-3.390;2024-01-15T13:34:55;2.88;;;1.70;;
23260;SDS011;11799;47.740;-3.390;2024-01-15T13:37:25;7.78;;;1.95;;
23260;SDS011;11799;47.740;-3.390;2024-01-15T13:39:51;2.22;;;1.60;;
23260;SDS011;11799;47.740;-3.390;2024-01-15T13:42:17;2.22;;;1.73;;
23260;SDS011;11799;47.740;-3.390;2024-01-15T13:44:43;4.30;;;1.83;;
23260;SDS011;11799;47.740;-3.390;2024-01-15T13:47:08;4.93;;;1.70;;
23260;SDS011;11799;47.740;-3.390;2024-01-15T13:49:35;2.15;;;1.58;;
23260;SDS011;11799;47.740;-3.390;2024-01-15T13:52:02;3.50;;;1.40;;
23260;SDS011;11799;47.740;-3.390;2024-01-15T13:54:31;3.25;;;1.85;;
23260;SDS011;11799;47.740;-3.390;2024-01-15T13:56:56;3.47;;;1.65;;
23260;SDS011;11799;47.740;-3.390;2024-01-15T13:59:24;2.92;;;1.70;;
23260;SDS011;11799;47.740;-3.390;2024-01-15T14:01:49;2.55;;;1.60;;
23260;SDS011;11799;47.740;-3.390;2024-01-15T14:04:15;3.03;;;1.70;;
23260;SDS011;11799;47.740;-3.390;2024-01-15T14:06:40;2.13;;;1.45;;
23260;SDS011;11799;47.740;-3.390;2024-01-15T14:09:06;3.40;;;1.50;;
23260;SDS011;11799;47.740;-3.390;2024-01-15T14:11:36;1.80;;;1.60;;
23260;SDS011;11799;47.740;-3.390;2024-01-15T14:14:02;3.20;;;1.67;;
23260;SDS011;11799;47.740;-3.390;2024-01-15T14:16:28;4.22;;;1.63;;
23260;SDS011;11799;47.740;-3.390;2024-01-15T14:18:53;2.35;;;1.40;;
23260;SDS011;11799;47.740;-3.390;2024-01-15T14:21:19;2.97;;;1.45;;
23260;SDS011;11799;47.740;-3.390;2024-01-15T14:23:45;2.70;;;1.55;;
23260;SDS011;11799;47.740;-3.390;2024-01-15T14:26:10;3.53;;;1.60;;
23260;SDS011;11799;47.740;-3.390;2024-01-15T14:28:36;3.33;;;1.70;;
23260;SDS011;11799;47.740;-3.390;2024-01-15T14:31:01;2.25;;;2.00;;